Camden Point, Missouri
Current Conditions -  °F | °C
As of 3:53 PM on Sunday 25 Jan 2015 (Local Time) from KMCI Reporting Station
Overcast Overcast  
Wind Chill: 29°   Ceiling: 1700
Heat Index: 38°   Visibility: 10mi
Dew Point: 32°   Wind: 16mph
Humidity: 79%   Direction: 360°N
Pressure: 29.97"   Gusts: NA
Location:  39.45°N, 94.74°W
Report Text: KMCI 252153Z 36014KT 10SM OVC017 03/00 A2997 RMK AO2 SLP152 T00330000
Loading
Personal Weather Stations






























Interactive Weather Map New forecast layout! Learn more

10-Day Weather Forecast

Advertisements
Track Severe Weather on mobile